createdAt,value
2023-04-27T00:00:00.280Z,67
2023-04-27T00:05:00.347Z,68
2023-04-27T00:10:00.190Z,68
2023-04-27T00:15:00.254Z,68
2023-04-27T00:20:00.215Z,68
2023-04-27T00:25:00.218Z,68
2023-04-27T00:30:00.226Z,69
2023-04-27T00:35:00.320Z,69
2023-04-27T00:40:00.177Z,69
2023-04-27T00:45:00.257Z,69
2023-04-27T00:50:00.236Z,70
2023-04-27T00:55:00.283Z,70
2023-04-27T01:00:00.200Z,69
2023-04-27T01:05:00.250Z,70
2023-04-27T01:10:00.235Z,70
2023-04-27T01:15:00.225Z,70
2023-04-27T01:20:00.379Z,70
2023-04-27T01:25:00.283Z,70
2023-04-27T01:30:00.199Z,71
2023-04-27T01:35:00.290Z,71
2023-04-27T01:40:00.252Z,71
2023-04-27T01:45:00.245Z,71
2023-04-27T01:50:00.222Z,71
2023-04-27T01:55:00.311Z,71
2023-04-27T02:00:00.235Z,72
2023-04-27T02:05:00.199Z,72
2023-04-27T02:10:00.241Z,72
2023-04-27T02:15:00.261Z,72
2023-04-27T02:20:00.196Z,72
2023-04-27T02:25:00.243Z,72
2023-04-27T02:30:00.160Z,72
2023-04-27T02:35:00.165Z,72
2023-04-27T02:40:00.226Z,72
2023-04-27T02:45:00.260Z,72
2023-04-27T02:50:00.226Z,72
2023-04-27T02:55:00.192Z,72
2023-04-27T03:00:00.303Z,73
2023-04-27T03:05:00.275Z,72
2023-04-27T03:10:00.194Z,73
2023-04-27T03:15:00.260Z,72
2023-04-27T03:20:00.262Z,73
2023-04-27T03:25:00.273Z,73
2023-04-27T03:30:00.237Z,73
2023-04-27T03:35:00.255Z,73
2023-04-27T03:40:00.232Z,73
2023-04-27T03:45:00.224Z,73
2023-04-27T03:50:00.236Z,73
2023-04-27T03:55:00.287Z,73
2023-04-27T04:00:00.209Z,73
2023-04-27T04:05:00.246Z,73
2023-04-27T04:10:00.234Z,73
2023-04-27T04:15:00.249Z,73
2023-04-27T04:20:00.215Z,73
2023-04-27T04:25:00.229Z,73
2023-04-27T04:30:00.242Z,73
2023-04-27T04:35:00.305Z,73
2023-04-27T04:40:00.249Z,74
2023-04-27T04:45:00.267Z,74
2023-04-27T04:50:00.328Z,74
2023-04-27T04:55:00.238Z,74
2023-04-27T05:00:00.381Z,74
2023-04-27T05:05:00.282Z,74
2023-04-27T05:10:00.257Z,74
2023-04-27T05:15:00.303Z,74
2023-04-27T05:20:00.252Z,74
2023-04-27T05:25:00.233Z,74
2023-04-27T05:30:00.250Z,74
2023-04-27T05:35:00.294Z,74
2023-04-27T05:40:00.212Z,75
2023-04-27T05:45:00.202Z,75
2023-04-27T05:50:00.312Z,74
2023-04-27T05:55:00.293Z,74
2023-04-27T06:00:00.275Z,74
2023-04-27T06:05:00.340Z,74
2023-04-27T06:10:00.267Z,74
2023-04-27T06:15:00.262Z,74
2023-04-27T06:20:00.219Z,74
2023-04-27T06:25:00.274Z,74
2023-04-27T06:30:00.270Z,74
2023-04-27T06:35:00.270Z,74
2023-04-27T06:40:00.191Z,74
2023-04-27T06:45:00.291Z,74
2023-04-27T06:50:00.239Z,74
2023-04-27T06:55:00.235Z,74
2023-04-27T07:00:00.294Z,74
2023-04-27T07:05:00.558Z,74
2023-04-27T07:10:00.234Z,73
2023-04-27T07:15:00.217Z,72
2023-04-27T07:20:00.410Z,72
2023-04-27T07:25:00.302Z,72
2023-04-27T07:30:00.250Z,71
2023-04-27T07:35:00.234Z,71
2023-04-27T07:40:00.256Z,70
2023-04-27T07:45:00.234Z,70
2023-04-27T07:50:00.267Z,70
2023-04-27T07:55:00.248Z,70
2023-04-27T08:00:00.251Z,69
2023-04-27T08:05:00.493Z,69
2023-04-27T08:10:00.187Z,68
2023-04-27T08:15:00.216Z,68
2023-04-27T08:20:00.214Z,67
2023-04-27T08:25:00.288Z,67
2023-04-27T08:30:00.193Z,67
2023-04-27T08:35:00.224Z,67
2023-04-27T08:40:00.254Z,66
2023-04-27T08:45:00.250Z,65
2023-04-27T08:50:00.242Z,64
2023-04-27T08:55:00.280Z,64
2023-04-27T09:00:00.300Z,64
2023-04-27T09:05:00.622Z,64
2023-04-27T09:10:00.255Z,63
2023-04-27T09:15:00.268Z,63
2023-04-27T09:20:00.250Z,62
2023-04-27T09:25:00.285Z,62
2023-04-27T09:30:00.224Z,61
2023-04-27T09:35:00.238Z,61
2023-04-27T09:40:00.225Z,60
2023-04-27T09:45:00.300Z,60
2023-04-27T09:50:00.238Z,60
2023-04-27T09:55:00.270Z,59
2023-04-27T10:00:00.210Z,59
2023-04-27T10:05:00.338Z,58
2023-04-27T10:10:00.292Z,59
2023-04-27T10:15:00.264Z,58
2023-04-27T10:20:00.307Z,58
2023-04-27T10:25:00.256Z,58
2023-04-27T10:30:00.267Z,58
2023-04-27T10:35:00.264Z,58
2023-04-27T10:40:00.253Z,58
2023-04-27T10:45:00.322Z,57
2023-04-27T10:50:00.276Z,56
2023-04-27T10:55:00.266Z,55
2023-04-27T11:00:00.310Z,54
2023-04-27T11:05:00.320Z,55
2023-04-27T11:10:00.350Z,55
2023-04-27T11:15:00.298Z,54
2023-04-27T11:20:00.293Z,54
2023-04-27T11:25:00.561Z,54
2023-04-27T11:30:00.282Z,54
2023-04-27T11:35:00.306Z,52
2023-04-27T11:40:00.310Z,53
2023-04-27T11:45:00.278Z,53
2023-04-27T11:50:00.356Z,52
2023-04-27T11:55:00.257Z,52
2023-04-27T12:00:00.569Z,51
2023-04-27T12:05:00.507Z,51
2023-04-27T12:10:01.193Z,51
2023-04-27T12:15:00.374Z,48
2023-04-27T12:20:00.352Z,48
2023-04-27T12:25:00.324Z,49
2023-04-27T12:30:00.307Z,50
2023-04-27T12:35:00.294Z,49
2023-04-27T12:40:00.373Z,48
2023-04-27T12:45:00.270Z,48
2023-04-27T12:50:00.248Z,48
2023-04-27T12:55:00.311Z,48
2023-04-27T13:00:01.703Z,48
2023-04-27T13:05:00.416Z,49
2023-04-27T13:10:00.235Z,49
2023-04-27T13:15:00.206Z,49
2023-04-27T13:20:00.258Z,47
2023-04-27T13:25:00.233Z,47
2023-04-27T13:30:00.256Z,48
2023-04-27T13:35:00.218Z,48
2023-04-27T13:40:00.255Z,47
2023-04-27T13:45:00.255Z,46
2023-04-27T13:50:00.222Z,46
2023-04-27T13:55:00.250Z,44
2023-04-27T14:00:00.255Z,44
2023-04-27T14:05:00.732Z,44
2023-04-27T14:10:00.215Z,44
2023-04-27T14:15:00.281Z,44
2023-04-27T14:20:00.221Z,44
2023-04-27T14:25:00.245Z,45
2023-04-27T14:30:00.220Z,44
2023-04-27T14:35:00.288Z,43
2023-04-27T14:40:00.209Z,43
2023-04-27T14:45:00.255Z,43
2023-04-27T14:50:00.241Z,44
2023-04-27T14:55:00.291Z,44
2023-04-27T15:00:00.282Z,44
2023-04-27T15:05:00.439Z,44
2023-04-27T15:10:00.228Z,45
2023-04-27T15:15:00.497Z,45
2023-04-27T15:20:00.207Z,45
2023-04-27T15:25:00.237Z,44
2023-04-27T15:30:00.251Z,44
2023-04-27T15:35:00.303Z,44
2023-04-27T15:40:00.211Z,44
2023-04-27T15:45:00.269Z,44
2023-04-27T15:50:00.199Z,45
2023-04-27T15:55:00.205Z,45
2023-04-27T16:00:00.279Z,45
2023-04-27T16:05:00.286Z,45
2023-04-27T16:10:00.384Z,45
2023-04-27T16:15:00.290Z,45
2023-04-27T16:20:00.367Z,45
2023-04-27T16:25:00.236Z,45
2023-04-27T16:30:00.242Z,45
2023-04-27T16:35:00.301Z,46
2023-04-27T16:40:00.372Z,45
2023-04-27T16:45:00.451Z,46
2023-04-27T16:50:00.228Z,46
2023-04-27T16:55:00.282Z,46
2023-04-27T17:00:00.395Z,46
2023-04-27T17:05:00.313Z,46
2023-04-27T17:10:00.405Z,46
2023-04-27T17:15:00.268Z,47
2023-04-27T17:20:00.366Z,47
2023-04-27T17:25:00.333Z,47
2023-04-27T17:30:01.076Z,47
2023-04-27T17:35:00.204Z,47
2023-04-27T17:40:00.213Z,47
2023-04-27T17:45:00.269Z,48
2023-04-27T17:50:00.246Z,48
2023-04-27T17:55:00.257Z,48
2023-04-27T18:00:00.258Z,48
2023-04-27T18:05:00.249Z,49
2023-04-27T18:10:00.272Z,49
2023-04-27T18:15:02.921Z,49
2023-04-27T18:20:08.137Z,49
2023-04-27T18:25:00.251Z,49
2023-04-27T18:30:00.301Z,49
2023-04-27T18:35:00.269Z,50
2023-04-27T18:40:00.284Z,50
2023-04-27T18:45:00.972Z,50
2023-04-27T18:50:00.212Z,50
2023-04-27T18:55:00.295Z,50
2023-04-27T19:00:00.260Z,50
2023-04-27T19:05:11.357Z,50
2023-04-27T19:10:00.319Z,50
2023-04-27T19:15:00.264Z,51
2023-04-27T19:20:00.272Z,51
2023-04-27T19:25:00.241Z,51
2023-04-27T19:30:00.224Z,51
2023-04-27T19:35:00.299Z,51
2023-04-27T19:40:00.311Z,51
2023-04-27T19:45:00.297Z,51
2023-04-27T19:50:00.198Z,51
2023-04-27T19:55:00.317Z,52
2023-04-27T20:00:00.234Z,52
2023-04-27T20:05:00.441Z,52
2023-04-27T20:10:00.234Z,52
2023-04-27T20:15:00.325Z,52
2023-04-27T20:20:00.256Z,52
2023-04-27T20:25:00.223Z,53
2023-04-27T20:30:00.403Z,53
2023-04-27T20:35:01.912Z,53
2023-04-27T20:40:00.194Z,53
2023-04-27T20:45:00.274Z,54
2023-04-27T20:50:00.235Z,54
2023-04-27T20:55:00.264Z,54
2023-04-27T21:00:00.239Z,54
2023-04-27T21:05:00.247Z,54
2023-04-27T21:10:00.194Z,54
2023-04-27T21:15:00.183Z,54
2023-04-27T21:20:00.273Z,54
2023-04-27T21:25:00.274Z,55
2023-04-27T21:30:00.177Z,55
2023-04-27T21:35:00.206Z,55
2023-04-27T21:40:00.216Z,55
2023-04-27T21:45:00.235Z,55
2023-04-27T21:50:00.224Z,55
2023-04-27T21:55:00.233Z,55
2023-04-27T22:00:00.207Z,55
2023-04-27T22:05:00.422Z,55
2023-04-27T22:10:00.206Z,55
2023-04-27T22:15:00.226Z,56
2023-04-27T22:20:00.184Z,56
2023-04-27T22:25:00.194Z,56
2023-04-27T22:30:00.236Z,56
2023-04-27T22:35:00.227Z,56
2023-04-27T22:40:00.234Z,56
2023-04-27T22:45:00.241Z,56
2023-04-27T22:50:00.217Z,56
2023-04-27T22:55:00.215Z,56
2023-04-27T23:00:00.171Z,56
2023-04-27T23:05:00.291Z,56
2023-04-27T23:10:00.178Z,56
2023-04-27T23:15:00.208Z,56
2023-04-27T23:20:00.235Z,56
2023-04-27T23:25:00.244Z,56
2023-04-27T23:30:00.230Z,56
2023-04-27T23:35:00.185Z,56
2023-04-27T23:40:00.234Z,56
2023-04-27T23:45:00.286Z,56
2023-04-27T23:50:00.216Z,57
2023-04-27T23:55:00.243Z,57
